Capitol Logistics 2294


KSDF
Louisville International Airport-Standiford Field
Louisville, Kentucky, US
KDFW
Dallas-Fort Worth International Airport
Dallas, Texas, US

Activity Log

Date Flight Route Aircraft Duration
No Flights Yet

Route Details

Aircraft Information
Primary: Boeing 747-400BCF
Backup: Boeing 767-300BDSF
Date Restrictions
Between:Nov 16, 2019
Dec 31, 2019
Route Data
Distance: 637nm
Sched. Duration: 1h 50m
Avg. Duration: 0h 00m (-150m)
Times Flown: 0
Recm'd Route: PXV083089 APALO PXV ARG Q25 MEEOW FEWWW SEEVR4
Planned Altitude: 34,000ft
Origin Wx: KSDF 210856Z 36006KT 10SM CLR M05/M11 A3062 RMK AO2 SLP375 T10501111 58005
Dest. Wx: KDFW 210853Z 02011KT 10SM CLR 01/M04 A3066 RMK AO2 SLP382 T00061039 58002
Notes: SEASONAL FLIGHT | UPS SURGE OPS CONTRACT

Financial History
Total Freight: 0lbs
Average Load: 0lbs/flt
Fuel Used: 0lbs
Avg. Fuel Used: 0lbs/flt
Fuel Expense: $0
Avg. Fuel Expense: $0
Avg. Fuel Cost: $0/lbs
Total Gross Income: $0
Pilot Pay: $0
Total Expenses: $0
Total Revenue: $0
Average Revenue: $0